sensor_id;sensor_type;location;lat;lon;timestamp;P1;durP1;ratioP1;P2;durP2;ratioP2
19024;SDS011;9645;51.448;6.260;2022-12-15T00:01:01;39.03;;;10.75;;
19024;SDS011;9645;51.448;6.260;2022-12-15T00:03:46;43.45;;;13.05;;
19024;SDS011;9645;51.448;6.260;2022-12-15T00:06:30;30.85;;;11.90;;
19024;SDS011;9645;51.448;6.260;2022-12-15T00:09:17;30.77;;;11.98;;
19024;SDS011;9645;51.448;6.260;2022-12-15T00:12:01;36.17;;;12.85;;
19024;SDS011;9645;51.448;6.260;2022-12-15T00:14:46;37.17;;;13.30;;
19024;SDS011;9645;51.448;6.260;2022-12-15T00:17:31;34.00;;;11.68;;
19024;SDS011;9645;51.448;6.260;2022-12-15T00:20:16;31.70;;;11.82;;
19024;SDS011;9645;51.448;6.260;2022-12-15T00:23:05;46.55;;;13.70;;
19024;SDS011;9645;51.448;6.260;2022-12-15T00:25:52;30.30;;;11.60;;
19024;SDS011;9645;51.448;6.260;2022-12-15T00:28:36;41.40;;;13.07;;
19024;SDS011;9645;51.448;6.260;2022-12-15T00:31:21;31.08;;;11.57;;
19024;SDS011;9645;51.448;6.260;2022-12-15T00:34:06;37.33;;;12.05;;
19024;SDS011;9645;51.448;6.260;2022-12-15T00:36:52;38.05;;;12.25;;
19024;SDS011;9645;51.448;6.260;2022-12-15T00:39:36;34.35;;;11.88;;
19024;SDS011;9645;51.448;6.260;2022-12-15T00:42:05;52.90;;;14.20;;
19024;SDS011;9645;51.448;6.260;2022-12-15T00:44:33;47.25;;;13.45;;
19024;SDS011;9645;51.448;6.260;2022-12-15T00:47:01;41.35;;;12.38;;
19024;SDS011;9645;51.448;6.260;2022-12-15T00:49:28;38.45;;;12.68;;
19024;SDS011;9645;51.448;6.260;2022-12-15T00:52:22;29.83;;;10.90;;
19024;SDS011;9645;51.448;6.260;2022-12-15T00:55:06;49.58;;;13.15;;
19024;SDS011;9645;51.448;6.260;2022-12-15T00:57:53;40.78;;;13.23;;
19024;SDS011;9645;51.448;6.260;2022-12-15T01:00:37;39.60;;;13.13;;
19024;SDS011;9645;51.448;6.260;2022-12-15T01:03:22;40.28;;;13.70;;
19024;SDS011;9645;51.448;6.260;2022-12-15T01:06:08;38.35;;;13.00;;
19024;SDS011;9645;51.448;6.260;2022-12-15T01:08:53;39.75;;;12.38;;
19024;SDS011;9645;51.448;6.260;2022-12-15T01:11:39;35.20;;;14.07;;
19024;SDS011;9645;51.448;6.260;2022-12-15T01:14:25;40.17;;;11.88;;
19024;SDS011;9645;51.448;6.260;2022-12-15T01:17:10;40.80;;;13.63;;
19024;SDS011;9645;51.448;6.260;2022-12-15T01:19:55;32.20;;;11.85;;
19024;SDS011;9645;51.448;6.260;2022-12-15T01:22:42;43.42;;;12.45;;
19024;SDS011;9645;51.448;6.260;2022-12-15T01:25:10;51.20;;;13.50;;
19024;SDS011;9645;51.448;6.260;2022-12-15T01:27:37;36.00;;;12.18;;
19024;SDS011;9645;51.448;6.260;2022-12-15T01:30:06;46.15;;;12.95;;
19024;SDS011;9645;51.448;6.260;2022-12-15T01:32:35;38.17;;;13.45;;
19024;SDS011;9645;51.448;6.260;2022-12-15T01:35:03;45.22;;;11.77;;
19024;SDS011;9645;51.448;6.260;2022-12-15T01:37:31;38.60;;;11.38;;
19024;SDS011;9645;51.448;6.260;2022-12-15T01:39:58;37.58;;;12.73;;
19024;SDS011;9645;51.448;6.260;2022-12-15T01:42:43;42.30;;;12.82;;
19024;SDS011;9645;51.448;6.260;2022-12-15T01:45:35;31.23;;;12.35;;
19024;SDS011;9645;51.448;6.260;2022-12-15T01:48:14;32.55;;;12.10;;
19024;SDS011;9645;51.448;6.260;2022-12-15T01:50:46;35.88;;;12.20;;
19024;SDS011;9645;51.448;6.260;2022-12-15T01:53:19;31.63;;;12.52;;
19024;SDS011;9645;51.448;6.260;2022-12-15T01:55:46;36.63;;;11.00;;
19024;SDS011;9645;51.448;6.260;2022-12-15T01:58:15;43.47;;;12.90;;
19024;SDS011;9645;51.448;6.260;2022-12-15T02:00:44;47.10;;;16.17;;
19024;SDS011;9645;51.448;6.260;2022-12-15T02:03:11;40.17;;;11.77;;
19024;SDS011;9645;51.448;6.260;2022-12-15T02:05:39;42.92;;;14.30;;
19024;SDS011;9645;51.448;6.260;2022-12-15T02:08:07;39.42;;;14.55;;
19024;SDS011;9645;51.448;6.260;2022-12-15T02:10:40;35.10;;;13.32;;
19024;SDS011;9645;51.448;6.260;2022-12-15T02:13:24;45.92;;;14.57;;
19024;SDS011;9645;51.448;6.260;2022-12-15T02:16:00;39.17;;;13.43;;
19024;SDS011;9645;51.448;6.260;2022-12-15T02:18:36;42.30;;;15.13;;
19024;SDS011;9645;51.448;6.260;2022-12-15T02:21:09;36.63;;;13.00;;
19024;SDS011;9645;51.448;6.260;2022-12-15T02:29:41;40.85;;;13.50;;
19024;SDS011;9645;51.448;6.260;2022-12-15T02:32:26;43.17;;;13.00;;
19024;SDS011;9645;51.448;6.260;2022-12-15T02:35:02;51.75;;;14.05;;
19024;SDS011;9645;51.448;6.260;2022-12-15T02:37:33;35.20;;;12.50;;
19024;SDS011;9645;51.448;6.260;2022-12-15T02:40:03;37.92;;;13.05;;
19024;SDS011;9645;51.448;6.260;2022-12-15T02:42:33;41.28;;;13.52;;
19024;SDS011;9645;51.448;6.260;2022-12-15T02:45:04;49.97;;;13.85;;
19024;SDS011;9645;51.448;6.260;2022-12-15T02:47:37;43.05;;;13.73;;
19024;SDS011;9645;51.448;6.260;2022-12-15T02:50:20;39.03;;;13.13;;
19024;SDS011;9645;51.448;6.260;2022-12-15T02:53:02;34.78;;;12.65;;
19024;SDS011;9645;51.448;6.260;2022-12-15T02:55:42;46.47;;;13.13;;
19024;SDS011;9645;51.448;6.260;2022-12-15T02:58:19;31.73;;;12.35;;
19024;SDS011;9645;51.448;6.260;2022-12-15T03:00:55;39.08;;;12.40;;
19024;SDS011;9645;51.448;6.260;2022-12-15T03:03:28;32.20;;;12.18;;
19024;SDS011;9645;51.448;6.260;2022-12-15T03:05:58;43.28;;;14.77;;
19024;SDS011;9645;51.448;6.260;2022-12-15T03:08:26;33.72;;;11.45;;
19024;SDS011;9645;51.448;6.260;2022-12-15T03:10:54;44.28;;;13.82;;
19024;SDS011;9645;51.448;6.260;2022-12-15T03:13:23;33.53;;;13.07;;
19024;SDS011;9645;51.448;6.260;2022-12-15T03:15:51;49.67;;;12.82;;
19024;SDS011;9645;51.448;6.260;2022-12-15T03:18:19;34.75;;;11.82;;
19024;SDS011;9645;51.448;6.260;2022-12-15T03:20:47;31.45;;;12.20;;
19024;SDS011;9645;51.448;6.260;2022-12-15T03:23:15;47.38;;;14.20;;
19024;SDS011;9645;51.448;6.260;2022-12-15T03:25:43;41.75;;;13.32;;
19024;SDS011;9645;51.448;6.260;2022-12-15T03:28:10;48.22;;;14.50;;
19024;SDS011;9645;51.448;6.260;2022-12-15T03:30:38;40.38;;;12.65;;
19024;SDS011;9645;51.448;6.260;2022-12-15T03:33:05;38.47;;;12.18;;
19024;SDS011;9645;51.448;6.260;2022-12-15T03:35:33;46.83;;;15.05;;
19024;SDS011;9645;51.448;6.260;2022-12-15T03:38:02;38.00;;;13.30;;
19024;SDS011;9645;51.448;6.260;2022-12-15T03:40:29;43.65;;;13.82;;
19024;SDS011;9645;51.448;6.260;2022-12-15T03:42:56;47.15;;;14.32;;
19024;SDS011;9645;51.448;6.260;2022-12-15T03:45:23;41.20;;;15.43;;
19024;SDS011;9645;51.448;6.260;2022-12-15T03:47:52;41.70;;;14.30;;
19024;SDS011;9645;51.448;6.260;2022-12-15T03:50:23;46.20;;;15.38;;
19024;SDS011;9645;51.448;6.260;2022-12-15T03:52:51;40.65;;;14.13;;
19024;SDS011;9645;51.448;6.260;2022-12-15T03:55:21;51.92;;;14.43;;
19024;SDS011;9645;51.448;6.260;2022-12-15T03:57:49;49.92;;;16.55;;
19024;SDS011;9645;51.448;6.260;2022-12-15T04:00:17;69.43;;;17.40;;
19024;SDS011;9645;51.448;6.260;2022-12-15T04:02:46;59.63;;;17.13;;
19024;SDS011;9645;51.448;6.260;2022-12-15T04:05:14;48.08;;;14.93;;
19024;SDS011;9645;51.448;6.260;2022-12-15T04:07:44;63.45;;;19.60;;
19024;SDS011;9645;51.448;6.260;2022-12-15T04:10:11;82.40;;;28.52;;
19024;SDS011;9645;51.448;6.260;2022-12-15T04:12:40;110.13;;;33.35;;
19024;SDS011;9645;51.448;6.260;2022-12-15T04:15:07;116.47;;;35.97;;
19024;SDS011;9645;51.448;6.260;2022-12-15T04:17:36;116.75;;;37.95;;
19024;SDS011;9645;51.448;6.260;2022-12-15T04:20:04;137.50;;;37.88;;
19024;SDS011;9645;51.448;6.260;2022-12-15T04:22:34;138.73;;;39.92;;
19024;SDS011;9645;51.448;6.260;2022-12-15T04:25:02;129.02;;;40.03;;
19024;SDS011;9645;51.448;6.260;2022-12-15T04:27:49;111.43;;;33.53;;
19024;SDS011;9645;51.448;6.260;2022-12-15T04:30:33;71.97;;;24.25;;
19024;SDS011;9645;51.448;6.260;2022-12-15T04:33:18;71.03;;;20.80;;
19024;SDS011;9645;51.448;6.260;2022-12-15T04:36:04;69.15;;;19.00;;
19024;SDS011;9645;51.448;6.260;2022-12-15T04:38:50;43.90;;;16.25;;
19024;SDS011;9645;51.448;6.260;2022-12-15T04:41:34;49.70;;;14.25;;
19024;SDS011;9645;51.448;6.260;2022-12-15T04:44:21;45.92;;;14.32;;
19024;SDS011;9645;51.448;6.260;2022-12-15T04:47:06;43.03;;;12.75;;
19024;SDS011;9645;51.448;6.260;2022-12-15T04:49:50;45.17;;;16.15;;
19024;SDS011;9645;51.448;6.260;2022-12-15T04:52:34;38.65;;;14.93;;
19024;SDS011;9645;51.448;6.260;2022-12-15T04:55:19;44.80;;;14.43;;
19024;SDS011;9645;51.448;6.260;2022-12-15T04:58:05;48.15;;;15.68;;
19024;SDS011;9645;51.448;6.260;2022-12-15T05:00:51;51.72;;;16.48;;
19024;SDS011;9645;51.448;6.260;2022-12-15T05:03:36;48.47;;;14.32;;
19024;SDS011;9645;51.448;6.260;2022-12-15T05:06:20;41.67;;;14.77;;
19024;SDS011;9645;51.448;6.260;2022-12-15T05:09:05;43.03;;;13.35;;
19024;SDS011;9645;51.448;6.260;2022-12-15T05:11:50;48.17;;;15.45;;
19024;SDS011;9645;51.448;6.260;2022-12-15T05:14:34;55.30;;;16.02;;
19024;SDS011;9645;51.448;6.260;2022-12-15T05:17:20;52.45;;;17.23;;
19024;SDS011;9645;51.448;6.260;2022-12-15T05:20:05;51.22;;;16.08;;
19024;SDS011;9645;51.448;6.260;2022-12-15T05:22:51;62.30;;;17.95;;
19024;SDS011;9645;51.448;6.260;2022-12-15T05:25:37;42.42;;;14.45;;
19024;SDS011;9645;51.448;6.260;2022-12-15T05:28:21;41.05;;;16.00;;
19024;SDS011;9645;51.448;6.260;2022-12-15T05:31:06;55.83;;;15.32;;
19024;SDS011;9645;51.448;6.260;2022-12-15T05:33:52;60.22;;;16.55;;
19024;SDS011;9645;51.448;6.260;2022-12-15T05:36:20;43.15;;;14.60;;
19024;SDS011;9645;51.448;6.260;2022-12-15T05:38:47;54.72;;;17.73;;
19024;SDS011;9645;51.448;6.260;2022-12-15T05:41:15;49.88;;;15.13;;
19024;SDS011;9645;51.448;6.260;2022-12-15T05:43:42;47.85;;;15.93;;
19024;SDS011;9645;51.448;6.260;2022-12-15T05:46:09;48.42;;;17.27;;
19024;SDS011;9645;51.448;6.260;2022-12-15T05:48:38;53.35;;;15.55;;
19024;SDS011;9645;51.448;6.260;2022-12-15T05:51:08;52.40;;;15.65;;
19024;SDS011;9645;51.448;6.260;2022-12-15T05:53:36;50.78;;;16.58;;
19024;SDS011;9645;51.448;6.260;2022-12-15T05:56:04;50.78;;;15.52;;
19024;SDS011;9645;51.448;6.260;2022-12-15T05:58:33;54.25;;;16.73;;
19024;SDS011;9645;51.448;6.260;2022-12-15T06:01:03;40.47;;;15.70;;
19024;SDS011;9645;51.448;6.260;2022-12-15T06:03:32;52.90;;;14.45;;
19024;SDS011;9645;51.448;6.260;2022-12-15T06:05:59;43.88;;;14.80;;
19024;SDS011;9645;51.448;6.260;2022-12-15T06:08:29;47.80;;;15.45;;
19024;SDS011;9645;51.448;6.260;2022-12-15T06:10:57;46.83;;;16.45;;
19024;SDS011;9645;51.448;6.260;2022-12-15T06:13:25;51.92;;;15.70;;
19024;SDS011;9645;51.448;6.260;2022-12-15T06:15:56;41.60;;;16.30;;
19024;SDS011;9645;51.448;6.260;2022-12-15T06:18:26;56.90;;;16.85;;
19024;SDS011;9645;51.448;6.260;2022-12-15T06:20:58;46.38;;;13.77;;
19024;SDS011;9645;51.448;6.260;2022-12-15T06:23:30;42.53;;;15.82;;
19024;SDS011;9645;51.448;6.260;2022-12-15T06:25:58;44.63;;;14.70;;
19024;SDS011;9645;51.448;6.260;2022-12-15T06:28:25;53.15;;;16.70;;
19024;SDS011;9645;51.448;6.260;2022-12-15T06:30:54;43.03;;;14.55;;
19024;SDS011;9645;51.448;6.260;2022-12-15T06:33:27;44.25;;;15.02;;
19024;SDS011;9645;51.448;6.260;2022-12-15T06:35:55;42.15;;;14.32;;
19024;SDS011;9645;51.448;6.260;2022-12-15T06:38:23;55.90;;;15.18;;
19024;SDS011;9645;51.448;6.260;2022-12-15T06:40:55;52.53;;;13.77;;
19024;SDS011;9645;51.448;6.260;2022-12-15T06:43:23;50.90;;;16.85;;
19024;SDS011;9645;51.448;6.260;2022-12-15T06:45:50;46.05;;;16.33;;
19024;SDS011;9645;51.448;6.260;2022-12-15T06:48:18;53.97;;;16.58;;
19024;SDS011;9645;51.448;6.260;2022-12-15T06:50:45;54.10;;;14.80;;
19024;SDS011;9645;51.448;6.260;2022-12-15T06:53:13;44.28;;;15.82;;
19024;SDS011;9645;51.448;6.260;2022-12-15T06:55:41;51.05;;;15.98;;
19024;SDS011;9645;51.448;6.260;2022-12-15T06:58:13;45.22;;;16.13;;
19024;SDS011;9645;51.448;6.260;2022-12-15T07:00:42;47.05;;;14.55;;
19024;SDS011;9645;51.448;6.260;2022-12-15T07:03:11;47.35;;;15.30;;
19024;SDS011;9645;51.448;6.260;2022-12-15T07:05:40;60.97;;;15.50;;
19024;SDS011;9645;51.448;6.260;2022-12-15T07:08:08;48.05;;;15.68;;
19024;SDS011;9645;51.448;6.260;2022-12-15T07:10:36;46.35;;;15.55;;
19024;SDS011;9645;51.448;6.260;2022-12-15T07:13:05;48.58;;;16.33;;
19024;SDS011;9645;51.448;6.260;2022-12-15T07:15:33;43.33;;;15.38;;
19024;SDS011;9645;51.448;6.260;2022-12-15T07:18:03;52.28;;;17.77;;
19024;SDS011;9645;51.448;6.260;2022-12-15T07:20:30;45.95;;;15.90;;
19024;SDS011;9645;51.448;6.260;2022-12-15T07:22:58;49.28;;;15.80;;
19024;SDS011;9645;51.448;6.260;2022-12-15T07:25:27;40.88;;;14.90;;
19024;SDS011;9645;51.448;6.260;2022-12-15T07:27:55;50.20;;;15.70;;
19024;SDS011;9645;51.448;6.260;2022-12-15T07:30:22;53.13;;;16.50;;
19024;SDS011;9645;51.448;6.260;2022-12-15T07:32:51;45.10;;;14.93;;
19024;SDS011;9645;51.448;6.260;2022-12-15T07:35:18;43.75;;;15.90;;
19024;SDS011;9645;51.448;6.260;2022-12-15T07:37:45;43.08;;;16.45;;
19024;SDS011;9645;51.448;6.260;2022-12-15T07:40:13;51.15;;;17.05;;
19024;SDS011;9645;51.448;6.260;2022-12-15T07:42:40;55.35;;;15.95;;
19024;SDS011;9645;51.448;6.260;2022-12-15T07:45:07;69.20;;;18.35;;
19024;SDS011;9645;51.448;6.260;2022-12-15T07:47:36;68.03;;;20.98;;
19024;SDS011;9645;51.448;6.260;2022-12-15T07:50:05;51.33;;;17.73;;
19024;SDS011;9645;51.448;6.260;2022-12-15T07:52:33;75.88;;;18.45;;
19024;SDS011;9645;51.448;6.260;2022-12-15T07:55:00;58.25;;;16.83;;
19024;SDS011;9645;51.448;6.260;2022-12-15T07:57:28;56.92;;;17.73;;
19024;SDS011;9645;51.448;6.260;2022-12-15T07:59:56;56.65;;;18.00;;
19024;SDS011;9645;51.448;6.260;2022-12-15T08:02:25;59.78;;;17.92;;
19024;SDS011;9645;51.448;6.260;2022-12-15T08:04:53;65.25;;;17.65;;
19024;SDS011;9645;51.448;6.260;2022-12-15T08:07:21;50.83;;;18.45;;
19024;SDS011;9645;51.448;6.260;2022-12-15T08:09:48;52.20;;;18.42;;
19024;SDS011;9645;51.448;6.260;2022-12-15T08:12:17;48.28;;;15.27;;
19024;SDS011;9645;51.448;6.260;2022-12-15T08:14:44;55.97;;;18.48;;
19024;SDS011;9645;51.448;6.260;2022-12-15T08:17:11;56.08;;;18.83;;
19024;SDS011;9645;51.448;6.260;2022-12-15T08:19:38;57.97;;;18.90;;
19024;SDS011;9645;51.448;6.260;2022-12-15T08:22:05;61.67;;;17.48;;
19024;SDS011;9645;51.448;6.260;2022-12-15T08:24:34;51.70;;;17.20;;
19024;SDS011;9645;51.448;6.260;2022-12-15T08:27:01;60.30;;;18.52;;
19024;SDS011;9645;51.448;6.260;2022-12-15T08:29:28;57.80;;;19.13;;
19024;SDS011;9645;51.448;6.260;2022-12-15T08:31:57;74.65;;;21.33;;
19024;SDS011;9645;51.448;6.260;2022-12-15T08:34:24;60.30;;;21.25;;
19024;SDS011;9645;51.448;6.260;2022-12-15T08:36:51;62.55;;;19.90;;
19024;SDS011;9645;51.448;6.260;2022-12-15T08:39:19;67.60;;;22.65;;
19024;SDS011;9645;51.448;6.260;2022-12-15T08:41:48;66.80;;;19.63;;
19024;SDS011;9645;51.448;6.260;2022-12-15T08:44:15;69.28;;;21.50;;
19024;SDS011;9645;51.448;6.260;2022-12-15T08:46:42;61.90;;;22.15;;
19024;SDS011;9645;51.448;6.260;2022-12-15T08:49:09;68.85;;;18.67;;
19024;SDS011;9645;51.448;6.260;2022-12-15T08:51:36;66.38;;;19.40;;
19024;SDS011;9645;51.448;6.260;2022-12-15T08:54:03;60.05;;;19.70;;
19024;SDS011;9645;51.448;6.260;2022-12-15T08:56:30;61.55;;;19.65;;
19024;SDS011;9645;51.448;6.260;2022-12-15T08:58:59;68.65;;;19.83;;
19024;SDS011;9645;51.448;6.260;2022-12-15T09:01:28;57.03;;;18.15;;
19024;SDS011;9645;51.448;6.260;2022-12-15T09:03:56;59.70;;;19.00;;
19024;SDS011;9645;51.448;6.260;2022-12-15T09:06:24;65.28;;;21.08;;
19024;SDS011;9645;51.448;6.260;2022-12-15T09:08:53;72.82;;;20.77;;
19024;SDS011;9645;51.448;6.260;2022-12-15T09:11:21;59.25;;;20.40;;
19024;SDS011;9645;51.448;6.260;2022-12-15T09:13:48;57.90;;;19.23;;
19024;SDS011;9645;51.448;6.260;2022-12-15T09:16:18;60.22;;;19.52;;
19024;SDS011;9645;51.448;6.260;2022-12-15T09:18:47;67.03;;;18.98;;
19024;SDS011;9645;51.448;6.260;2022-12-15T09:21:16;70.88;;;19.98;;
19024;SDS011;9645;51.448;6.260;2022-12-15T09:23:46;50.83;;;17.40;;
19024;SDS011;9645;51.448;6.260;2022-12-15T09:26:15;61.13;;;19.73;;
19024;SDS011;9645;51.448;6.260;2022-12-15T09:28:42;62.28;;;21.58;;
19024;SDS011;9645;51.448;6.260;2022-12-15T09:31:10;57.97;;;20.30;;
19024;SDS011;9645;51.448;6.260;2022-12-15T09:33:41;72.70;;;19.08;;
19024;SDS011;9645;51.448;6.260;2022-12-15T09:36:09;75.32;;;20.05;;
19024;SDS011;9645;51.448;6.260;2022-12-15T09:38:37;75.22;;;23.10;;
19024;SDS011;9645;51.448;6.260;2022-12-15T09:41:06;67.65;;;20.42;;
19024;SDS011;9645;51.448;6.260;2022-12-15T09:43:34;64.38;;;18.95;;
19024;SDS011;9645;51.448;6.260;2022-12-15T09:46:05;73.20;;;21.13;;
19024;SDS011;9645;51.448;6.260;2022-12-15T09:48:39;70.78;;;22.85;;
19024;SDS011;9645;51.448;6.260;2022-12-15T09:51:11;86.20;;;24.05;;
19024;SDS011;9645;51.448;6.260;2022-12-15T09:53:41;82.40;;;24.58;;
19024;SDS011;9645;51.448;6.260;2022-12-15T09:56:10;77.20;;;22.67;;
19024;SDS011;9645;51.448;6.260;2022-12-15T09:58:45;71.45;;;22.38;;
19024;SDS011;9645;51.448;6.260;2022-12-15T10:01:22;79.40;;;23.02;;
19024;SDS011;9645;51.448;6.260;2022-12-15T10:03:57;71.25;;;22.25;;
19024;SDS011;9645;51.448;6.260;2022-12-15T10:06:32;72.65;;;22.90;;
19024;SDS011;9645;51.448;6.260;2022-12-15T10:09:08;52.28;;;20.75;;
19024;SDS011;9645;51.448;6.260;2022-12-15T10:11:44;68.38;;;19.67;;
19024;SDS011;9645;51.448;6.260;2022-12-15T10:14:18;56.83;;;19.60;;
19024;SDS011;9645;51.448;6.260;2022-12-15T10:16:54;72.43;;;19.77;;
19024;SDS011;9645;51.448;6.260;2022-12-15T10:19:30;54.30;;;18.63;;
19024;SDS011;9645;51.448;6.260;2022-12-15T10:22:04;57.78;;;19.45;;
19024;SDS011;9645;51.448;6.260;2022-12-15T10:24:35;58.10;;;17.13;;
19024;SDS011;9645;51.448;6.260;2022-12-15T10:27:05;59.95;;;18.38;;
19024;SDS011;9645;51.448;6.260;2022-12-15T10:29:50;67.32;;;18.90;;
19024;SDS011;9645;51.448;6.260;2022-12-15T10:32:27;60.92;;;20.15;;
19024;SDS011;9645;51.448;6.260;2022-12-15T10:35:02;49.60;;;19.10;;
19024;SDS011;9645;51.448;6.260;2022-12-15T10:37:33;60.92;;;19.88;;
19024;SDS011;9645;51.448;6.260;2022-12-15T10:40:03;64.63;;;20.45;;
19024;SDS011;9645;51.448;6.260;2022-12-15T10:42:31;64.45;;;18.67;;
19024;SDS011;9645;51.448;6.260;2022-12-15T10:45:26;64.47;;;20.60;;
19024;SDS011;9645;51.448;6.260;2022-12-15T10:47:57;52.17;;;19.02;;
19024;SDS011;9645;51.448;6.260;2022-12-15T10:50:28;62.42;;;21.55;;
19024;SDS011;9645;51.448;6.260;2022-12-15T10:52:55;57.03;;;20.23;;
19024;SDS011;9645;51.448;6.260;2022-12-15T10:55:28;63.38;;;19.83;;
19024;SDS011;9645;51.448;6.260;2022-12-15T10:57:58;53.17;;;19.50;;
19024;SDS011;9645;51.448;6.260;2022-12-15T11:00:27;61.58;;;19.13;;
19024;SDS011;9645;51.448;6.260;2022-12-15T11:02:56;62.05;;;20.70;;
19024;SDS011;9645;51.448;6.260;2022-12-15T11:05:23;65.22;;;21.10;;
19024;SDS011;9645;51.448;6.260;2022-12-15T11:07:53;59.88;;;18.83;;
19024;SDS011;9645;51.448;6.260;2022-12-15T11:10:22;78.72;;;19.98;;
19024;SDS011;9645;51.448;6.260;2022-12-15T11:12:54;67.68;;;20.90;;
19024;SDS011;9645;51.448;6.260;2022-12-15T11:15:31;66.75;;;19.80;;
19024;SDS011;9645;51.448;6.260;2022-12-15T11:18:07;55.42;;;19.48;;
19024;SDS011;9645;51.448;6.260;2022-12-15T11:20:42;55.60;;;19.95;;
19024;SDS011;9645;51.448;6.260;2022-12-15T11:23:17;51.55;;;20.30;;
19024;SDS011;9645;51.448;6.260;2022-12-15T11:25:50;53.45;;;18.75;;
19024;SDS011;9645;51.448;6.260;2022-12-15T11:28:23;64.30;;;20.23;;
19024;SDS011;9645;51.448;6.260;2022-12-15T11:30:58;54.92;;;20.10;;
19024;SDS011;9645;51.448;6.260;2022-12-15T11:33:31;55.10;;;21.50;;
19024;SDS011;9645;51.448;6.260;2022-12-15T11:36:01;60.15;;;20.30;;
19024;SDS011;9645;51.448;6.260;2022-12-15T11:38:37;51.65;;;21.10;;
19024;SDS011;9645;51.448;6.260;2022-12-15T11:41:10;55.13;;;20.70;;
19024;SDS011;9645;51.448;6.260;2022-12-15T11:43:48;66.60;;;20.40;;
19024;SDS011;9645;51.448;6.260;2022-12-15T11:46:28;49.28;;;19.55;;
19024;SDS011;9645;51.448;6.260;2022-12-15T11:52:15;50.72;;;19.05;;
19024;SDS011;9645;51.448;6.260;2022-12-15T11:55:00;53.25;;;19.88;;
19024;SDS011;9645;51.448;6.260;2022-12-15T11:57:48;52.67;;;20.05;;
19024;SDS011;9645;51.448;6.260;2022-12-15T12:00:26;49.22;;;18.90;;
19024;SDS011;9645;51.448;6.260;2022-12-15T12:03:03;59.00;;;19.30;;
19024;SDS011;9645;51.448;6.260;2022-12-15T12:05:58;56.70;;;20.00;;
19024;SDS011;9645;51.448;6.260;2022-12-15T12:08:40;50.10;;;19.83;;
19024;SDS011;9645;51.448;6.260;2022-12-15T12:11:20;53.58;;;19.50;;
19024;SDS011;9645;51.448;6.260;2022-12-15T12:14:03;41.22;;;17.52;;
19024;SDS011;9645;51.448;6.260;2022-12-15T12:16:39;60.33;;;20.80;;
19024;SDS011;9645;51.448;6.260;2022-12-15T12:19:16;59.95;;;20.42;;
19024;SDS011;9645;51.448;6.260;2022-12-15T12:21:46;52.25;;;18.75;;
19024;SDS011;9645;51.448;6.260;2022-12-15T12:24:15;49.10;;;20.08;;
19024;SDS011;9645;51.448;6.260;2022-12-15T12:26:51;54.40;;;18.73;;
19024;SDS011;9645;51.448;6.260;2022-12-15T12:29:24;52.08;;;19.75;;
19024;SDS011;9645;51.448;6.260;2022-12-15T12:31:56;45.53;;;17.33;;
19024;SDS011;9645;51.448;6.260;2022-12-15T12:34:31;50.75;;;19.35;;
19024;SDS011;9645;51.448;6.260;2022-12-15T12:37:12;56.42;;;20.20;;
19024;SDS011;9645;51.448;6.260;2022-12-15T12:39:41;66.15;;;20.65;;
19024;SDS011;9645;51.448;6.260;2022-12-15T12:42:13;53.38;;;19.80;;
19024;SDS011;9645;51.448;6.260;2022-12-15T12:44:46;50.50;;;18.83;;
19024;SDS011;9645;51.448;6.260;2022-12-15T12:47:14;60.05;;;21.05;;
19024;SDS011;9645;51.448;6.260;2022-12-15T12:49:48;51.25;;;18.10;;
19024;SDS011;9645;51.448;6.260;2022-12-15T12:52:19;49.58;;;19.40;;
19024;SDS011;9645;51.448;6.260;2022-12-15T12:54:53;52.80;;;19.35;;
19024;SDS011;9645;51.448;6.260;2022-12-15T12:57:33;52.10;;;18.55;;
19024;SDS011;9645;51.448;6.260;2022-12-15T13:00:10;51.65;;;18.85;;
19024;SDS011;9645;51.448;6.260;2022-12-15T13:02:47;47.30;;;16.83;;
19024;SDS011;9645;51.448;6.260;2022-12-15T13:05:37;46.53;;;16.95;;
19024;SDS011;9645;51.448;6.260;2022-12-15T13:08:15;55.15;;;18.25;;
19024;SDS011;9645;51.448;6.260;2022-12-15T13:10:58;45.47;;;17.67;;
19024;SDS011;9645;51.448;6.260;2022-12-15T13:14:11;52.47;;;18.98;;
19024;SDS011;9645;51.448;6.260;2022-12-15T13:16:41;45.85;;;17.67;;
19024;SDS011;9645;51.448;6.260;2022-12-15T13:19:11;69.22;;;18.40;;
19024;SDS011;9645;51.448;6.260;2022-12-15T13:24:29;52.33;;;17.45;;
19024;SDS011;9645;51.448;6.260;2022-12-15T13:29:56;47.17;;;17.45;;
19024;SDS011;9645;51.448;6.260;2022-12-15T13:32:28;59.38;;;17.73;;
19024;SDS011;9645;51.448;6.260;2022-12-15T13:35:00;44.25;;;16.38;;
19024;SDS011;9645;51.448;6.260;2022-12-15T13:37:45;49.47;;;17.70;;
19024;SDS011;9645;51.448;6.260;2022-12-15T13:40:31;48.88;;;16.73;;
19024;SDS011;9645;51.448;6.260;2022-12-15T13:43:31;48.05;;;17.30;;
19024;SDS011;9645;51.448;6.260;2022-12-15T13:46:13;48.65;;;17.10;;
19024;SDS011;9645;51.448;6.260;2022-12-15T13:48:43;44.90;;;16.92;;
19024;SDS011;9645;51.448;6.260;2022-12-15T13:51:17;62.28;;;16.70;;
19024;SDS011;9645;51.448;6.260;2022-12-15T13:53:51;54.05;;;18.10;;
19024;SDS011;9645;51.448;6.260;2022-12-15T13:56:27;44.83;;;17.35;;
19024;SDS011;9645;51.448;6.260;2022-12-15T13:59:19;37.50;;;16.20;;
19024;SDS011;9645;51.448;6.260;2022-12-15T14:01:58;39.95;;;16.48;;
19024;SDS011;9645;51.448;6.260;2022-12-15T14:04:25;50.60;;;16.17;;
19024;SDS011;9645;51.448;6.260;2022-12-15T14:06:53;53.97;;;16.70;;
19024;SDS011;9645;51.448;6.260;2022-12-15T14:09:23;42.55;;;16.45;;
19024;SDS011;9645;51.448;6.260;2022-12-15T14:11:54;43.45;;;16.70;;
19024;SDS011;9645;51.448;6.260;2022-12-15T14:14:23;43.10;;;17.58;;
19024;SDS011;9645;51.448;6.260;2022-12-15T14:16:53;43.22;;;17.25;;
19024;SDS011;9645;51.448;6.260;2022-12-15T14:19:34;45.20;;;16.65;;
19024;SDS011;9645;51.448;6.260;2022-12-15T14:24:50;55.25;;;18.60;;
19024;SDS011;9645;51.448;6.260;2022-12-15T14:27:26;46.97;;;17.80;;
19024;SDS011;9645;51.448;6.260;2022-12-15T14:30:07;48.42;;;16.50;;
19024;SDS011;9645;51.448;6.260;2022-12-15T14:32:44;43.40;;;14.90;;
19024;SDS011;9645;51.448;6.260;2022-12-15T14:35:16;40.88;;;15.45;;
19024;SDS011;9645;51.448;6.260;2022-12-15T14:37:47;43.25;;;16.05;;
19024;SDS011;9645;51.448;6.260;2022-12-15T14:40:15;42.65;;;15.50;;
19024;SDS011;9645;51.448;6.260;2022-12-15T14:42:43;47.28;;;15.18;;
19024;SDS011;9645;51.448;6.260;2022-12-15T14:45:16;45.10;;;15.70;;
19024;SDS011;9645;51.448;6.260;2022-12-15T14:47:49;41.20;;;15.60;;
19024;SDS011;9645;51.448;6.260;2022-12-15T14:50:18;49.25;;;17.25;;
19024;SDS011;9645;51.448;6.260;2022-12-15T14:52:50;62.13;;;19.85;;
19024;SDS011;9645;51.448;6.260;2022-12-15T14:55:25;63.20;;;21.55;;
19024;SDS011;9645;51.448;6.260;2022-12-15T14:57:57;67.28;;;22.95;;
19024;SDS011;9645;51.448;6.260;2022-12-15T15:00:27;74.57;;;23.77;;
19024;SDS011;9645;51.448;6.260;2022-12-15T15:05:56;79.10;;;22.52;;
19024;SDS011;9645;51.448;6.260;2022-12-15T15:08:26;72.47;;;22.42;;
19024;SDS011;9645;51.448;6.260;2022-12-15T15:10:56;70.05;;;22.45;;
19024;SDS011;9645;51.448;6.260;2022-12-15T15:13:27;69.28;;;23.27;;
19024;SDS011;9645;51.448;6.260;2022-12-15T15:16:03;68.68;;;23.05;;
19024;SDS011;9645;51.448;6.260;2022-12-15T15:18:33;69.15;;;23.63;;
19024;SDS011;9645;51.448;6.260;2022-12-15T15:21:01;81.40;;;25.10;;
19024;SDS011;9645;51.448;6.260;2022-12-15T15:23:30;78.90;;;24.48;;
19024;SDS011;9645;51.448;6.260;2022-12-15T15:26:06;68.10;;;22.67;;
19024;SDS011;9645;51.448;6.260;2022-12-15T15:28:35;79.53;;;23.42;;
19024;SDS011;9645;51.448;6.260;2022-12-15T15:31:21;91.85;;;25.75;;